Time;durP1;ratioP1;P1;durP2;ratioP2;P2;SDS_P1;SDS_P2;PMS_P1;PMS_P2;Temp;Humidity;BMP_temperature;BMP_pressure;BME280_temperature;BME280_humidity;BME280_pressure;Samples;Min_cycle;Max_cycle;Signal;HPM_P1;HPM_P2
2023/10/23 00:01:19;;;;;;;7.13;3.65;;;;;;;11.10;74.74;100425.28;4144490;28;20037;-70
2023/10/23 00:03:21;;;;;;;10.25;3.90;;;;;;;11.09;75.01;100420.91;4146294;28;20500;-69
2023/10/23 00:05:25;;;;;;;9.80;3.78;;;;;;;11.03;74.88;100426.06;4146487;28;20076;-70
2023/10/23 00:07:28;;;;;;;14.27;4.28;;;;;;;10.99;74.75;100427.78;4145454;28;20046;-70
2023/10/23 00:09:32;;;;;;;8.30;3.53;;;;;;;10.98;75.04;100431.22;4145959;28;20053;-70
2023/10/23 00:11:35;;;;;;;11.43;5.13;;;;;;;10.97;74.97;100426.00;4146565;28;20122;-70
2023/10/23 00:13:38;;;;;;;10.07;3.28;;;;;;;10.97;75.26;100428.59;4144143;28;20077;-70
2023/10/23 00:15:42;;;;;;;10.30;3.58;;;;;;;10.97;74.59;100431.19;4145947;28;20301;-70
2023/10/23 00:17:45;;;;;;;8.15;3.17;;;;;;;10.97;75.08;100441.59;4144678;28;20052;-69
2023/10/23 00:19:48;;;;;;;8.48;4.57;;;;;;;10.98;75.24;100439.03;4147171;28;20498;-70
2023/10/23 00:21:51;;;;;;;10.40;4.10;;;;;;;10.98;74.72;100443.31;4146245;28;20044;-70
2023/10/23 00:23:54;;;;;;;10.98;4.10;;;;;;;10.99;74.18;100445.97;4144457;28;20083;-69
2023/10/23 00:25:58;;;;;;;8.70;3.33;;;;;;;10.99;74.30;100455.50;4146521;28;20033;-70
2023/10/23 00:28:01;;;;;;;7.88;3.35;;;;;;;10.94;74.88;100449.38;4146104;28;20046;-71
2023/10/23 00:30:05;;;;;;;13.43;4.93;;;;;;;10.92;75.09;100443.25;4145982;28;20046;-70
2023/10/23 00:32:08;;;;;;;8.18;2.85;;;;;;;10.90;75.37;100443.25;4144993;28;20029;-70
2023/10/23 00:34:11;;;;;;;6.53;3.20;;;;;;;10.88;74.68;100438.88;4145631;28;20046;-70
2023/10/23 00:36:14;;;;;;;8.98;4.10;;;;;;;10.86;75.00;100448.38;4145745;28;20042;-70
2023/10/23 00:38:17;;;;;;;13.20;4.68;;;;;;;10.85;75.00;100446.63;4144973;28;20133;-69
2023/10/23 00:40:19;;;;;;;8.50;3.40;;;;;;;10.83;74.89;100442.31;4143913;28;20072;-70
2023/10/23 00:42:23;;;;;;;9.15;4.18;;;;;;;10.83;75.45;100447.50;4147899;28;20042;-70
2023/10/23 00:44:27;;;;;;;13.52;4.40;;;;;;;10.83;75.60;100441.41;4142845;28;20510;-70
2023/10/23 00:46:31;;;;;;;9.15;3.42;;;;;;;10.85;75.27;100437.13;4145962;28;20038;-70
2023/10/23 00:48:34;;;;;;;9.02;3.45;;;;;;;10.86;75.88;100438.00;4145724;28;20034;-70
2023/10/23 00:50:37;;;;;;;11.32;3.92;;;;;;;10.86;75.16;100438.00;4145265;28;20096;-70
2023/10/23 00:52:41;;;;;;;8.70;3.70;;;;;;;10.83;76.37;100439.72;4144582;28;20532;-69
2023/10/23 00:54:46;;;;;;;7.97;3.47;;;;;;;10.85;76.08;100441.44;4145513;28;20084;-69
2023/10/23 00:56:50;;;;;;;13.50;3.80;;;;;;;10.85;75.55;100433.63;4144776;28;20125;-70
2023/10/23 00:58:55;;;;;;;8.00;3.90;;;;;;;10.84;75.37;100437.97;4145715;28;20120;-70
2023/10/23 01:00:59;;;;;;;11.32;3.95;;;;;;;10.79;75.87;100437.03;4143814;28;20044;-69
2023/10/23 01:03:03;;;;;;;8.98;3.63;;;;;;;10.71;75.29;100433.47;4160777;28;20096;-70
2023/10/23 01:05:06;;;;;;;10.95;3.88;;;;;;;10.63;75.72;100436.84;4144940;28;20041;-70
2023/10/23 01:07:09;;;;;;;7.70;3.47;;;;;;;10.64;75.96;100432.50;4145173;28;20042;-70
2023/10/23 01:09:12;;;;;;;5.82;2.95;;;;;;;10.65;75.68;100432.53;4145379;28;20134;-70
2023/10/23 01:11:15;;;;;;;8.15;3.35;;;;;;;10.65;75.92;100429.06;4127997;28;20057;-70
2023/10/23 01:13:19;;;;;;;10.90;3.90;;;;;;;10.63;75.60;100425.53;4144059;28;20146;-70
2023/10/23 01:15:23;;;;;;;9.50;3.90;;;;;;;10.57;75.49;100425.47;4144268;28;20046;-70
2023/10/23 01:17:26;;;;;;;7.93;3.25;;;;;;;10.52;75.43;100428.00;4147099;28;20073;-69
2023/10/23 01:19:29;;;;;;;6.55;3.40;;;;;;;10.46;75.58;100428.78;4127923;28;20044;-70
2023/10/23 01:21:32;;;;;;;10.88;3.35;;;;;;;10.50;76.26;100428.84;4128594;28;20465;-70
2023/10/23 01:23:37;;;;;;;11.32;3.83;;;;;;;10.50;76.45;100429.72;4144604;28;20045;-70
2023/10/23 01:25:41;;;;;;;7.50;3.30;;;;;;;10.47;75.77;100424.50;4145505;28;20048;-69
2023/10/23 01:27:44;;;;;;;7.03;3.13;;;;;;;10.46;75.90;100431.41;4136444;28;20090;-69
2023/10/23 01:29:47;;;;;;;7.60;3.50;;;;;;;10.50;76.03;100426.22;4145830;28;20030;-69
2023/10/23 01:31:49;;;;;;;8.35;3.15;;;;;;;10.50;75.95;100427.13;4142995;28;20539;-70
2023/10/23 01:33:51;;;;;;;8.60;4.03;;;;;;;10.46;75.74;100428.78;4147915;28;20526;-70
2023/10/23 01:35:54;;;;;;;10.25;3.22;;;;;;;10.47;75.53;100422.75;4132047;28;20054;-70
2023/10/23 01:37:57;;;;;;;6.47;3.17;;;;;;;10.46;75.94;100427.94;4142704;28;20144;-69
2023/10/23 01:39:59;;;;;;;9.90;3.58;;;;;;;10.47;75.92;100424.50;4144436;28;20058;-70
2023/10/23 01:42:04;;;;;;;8.57;3.30;;;;;;;10.48;75.52;100421.91;4146561;28;20639;-70
2023/10/23 01:44:07;;;;;;;9.63;2.90;;;;;;;10.46;75.94;100427.94;4142213;28;20120;-69
2023/10/23 01:46:11;;;;;;;12.13;3.60;;;;;;;10.43;76.30;100427.91;4143966;28;20046;-70
2023/10/23 01:48:14;;;;;;;7.78;3.42;;;;;;;10.44;76.59;100420.13;4144192;28;20132;-70
2023/10/23 01:50:17;;;;;;;7.70;3.58;;;;;;;10.45;75.74;100416.69;4142398;28;20038;-69
2023/10/23 01:52:20;;;;;;;9.43;3.63;;;;;;;10.44;75.39;100425.31;4144882;28;20558;-69
2023/10/23 01:54:22;;;;;;;7.85;3.35;;;;;;;10.44;75.33;100420.13;4143650;28;20048;-69
2023/10/23 01:56:25;;;;;;;7.10;3.20;;;;;;;10.44;75.47;100420.13;4124410;28;20046;-69
2023/10/23 01:58:29;;;;;;;8.77;3.42;;;;;;;10.44;75.53;100422.72;4149230;28;20467;-70
2023/10/23 02:00:33;;;;;;;7.57;3.75;;;;;;;10.44;75.40;100419.22;4145290;28;20120;-70
2023/10/23 02:02:35;;;;;;;8.55;3.72;;;;;;;10.44;75.13;100419.22;4162943;28;20037;-70
2023/10/23 02:04:39;;;;;;;10.50;3.72;;;;;;;10.43;75.75;100417.50;4139188;28;20037;-70
2023/10/23 02:06:43;;;;;;;;;;;;;;;10.31;75.92;100425.97;4161385;28;20056;-70
2023/10/23 02:08:46;;;;;;;8.73;3.55;;;;;;;10.34;75.89;100420.84;4143462;28;19953;-70
2023/10/23 02:10:48;;;;;;;8.18;3.03;;;;;;;10.35;75.64;100425.16;4143878;28;20611;-70
2023/10/23 02:12:51;;;;;;;13.45;3.83;;;;;;;10.35;75.83;100425.16;4142756;28;20140;-70
2023/10/23 02:14:55;;;;;;;9.57;3.38;;;;;;;10.37;75.78;100418.28;4141955;28;20446;-70
2023/10/23 02:16:58;;;;;;;14.30;3.50;;;;;;;10.37;76.13;100425.22;4142295;28;20044;-70
2023/10/23 02:19:01;;;;;;;8.48;3.50;;;;;;;10.39;75.58;100426.97;4145502;28;20050;-70
2023/10/23 02:21:04;;;;;;;12.13;3.60;;;;;;;10.38;76.43;100430.44;4143887;28;20403;-70
2023/10/23 02:23:07;;;;;;;11.55;3.70;;;;;;;10.39;76.00;100428.69;4141715;28;20124;-70
2023/10/23 02:25:10;;;;;;;7.63;3.35;;;;;;;10.38;75.77;100425.22;4142974;28;20133;-70
2023/10/23 02:27:13;;;;;;;8.45;3.00;;;;;;;10.37;76.48;100430.41;4138743;28;20063;-70
2023/10/23 02:29:16;;;;;;;6.43;2.88;;;;;;;10.33;76.16;100428.59;4144447;28;20224;-70
2023/10/23 02:31:20;;;;;;;12.00;3.45;;;;;;;10.27;76.71;100426.75;4141382;28;20512;-70
2023/10/23 02:33:23;;;;;;;9.30;3.50;;;;;;;10.25;76.63;100433.63;4146549;28;20399;-70
2023/10/23 02:35:26;;;;;;;8.27;3.70;;;;;;;10.26;76.13;100436.25;4140014;28;20088;-70
2023/10/23 02:37:29;;;;;;;8.90;3.65;;;;;;;10.27;76.32;100437.16;4143789;28;20049;-70
2023/10/23 02:39:32;;;;;;;10.20;3.53;;;;;;;10.20;75.69;100443.97;4144050;28;20499;-70
2023/10/23 02:41:35;;;;;;;7.93;3.45;;;;;;;10.15;76.09;100448.22;4133694;28;20042;-70
2023/10/23 02:43:38;;;;;;;10.07;4.55;;;;;;;10.15;76.02;100445.63;4143369;28;20117;-70
2023/10/23 02:45:41;;;;;;;12.48;3.80;;;;;;;10.18;76.18;100437.00;4138835;28;20052;-70
2023/10/23 02:47:44;;;;;;;8.70;3.70;;;;;;;10.17;76.31;100437.88;4146712;28;20034;-70
2023/10/23 02:49:47;;;;;;;8.15;2.67;;;;;;;10.17;76.73;100437.88;4144351;28;20034;-70
2023/10/23 02:51:50;;;;;;;4.93;3.22;;;;;;;10.14;76.63;100449.06;4140466;28;20034;-70
2023/10/23 02:53:53;;;;;;;5.38;2.85;;;;;;;10.11;76.48;100454.22;4143748;28;20121;-70
2023/10/23 02:55:56;;;;;;;8.63;3.85;;;;;;;10.09;76.52;100456.81;4143507;28;20539;-70
2023/10/23 02:58:00;;;;;;;6.20;3.78;;;;;;;10.11;76.86;100451.63;4142566;28;20769;-70
2023/10/23 03:00:05;;;;;;;7.28;3.13;;;;;;;10.11;76.52;100452.50;4143419;28;20424;-70
2023/10/23 03:02:09;;;;;;;7.57;3.40;;;;;;;10.11;76.22;100449.03;4143633;28;20056;-70
2023/10/23 03:04:13;;;;;;;8.30;3.58;;;;;;;10.11;76.70;100449.03;4145039;28;20138;-70
2023/10/23 03:06:15;;;;;;;8.07;3.83;;;;;;;10.12;76.68;100449.06;4140052;28;20038;-69
2023/10/23 03:08:18;;;;;;;10.43;3.50;;;;;;;10.12;76.03;100448.19;4141513;28;20046;-70
2023/10/23 03:10:21;;;;;;;11.10;3.83;;;;;;;10.06;76.64;100448.06;4143548;28;20042;-70
2023/10/23 03:12:24;;;;;;;13.95;4.15;;;;;;;10.06;76.07;100448.97;4141975;28;20081;-70
2023/10/23 03:14:27;;;;;;;8.77;3.53;;;;;;;10.03;76.12;100451.50;4142305;28;20042;-69
2023/10/23 03:16:30;;;;;;;5.82;3.47;;;;;;;9.98;76.69;100447.09;4139690;28;20061;-70
2023/10/23 03:18:32;;;;;;;6.38;3.33;;;;;;;9.97;76.25;100448.78;4157131;28;21370;-70
2023/10/23 03:20:37;;;;;;;7.25;3.60;;;;;;;9.98;76.28;100450.56;4143465;28;20117;-70
2023/10/23 03:22:40;;;;;;;10.63;4.28;;;;;;;9.98;76.30;100457.47;4144156;28;20129;-70
2023/10/23 03:24:42;;;;;;;10.88;4.40;;;;;;;9.95;76.80;100453.09;4143531;28;20034;-70
2023/10/23 03:26:45;;;;;;;9.43;3.85;;;;;;;9.98;76.11;100444.50;4143397;28;20049;-70
2023/10/23 03:28:47;;;;;;;13.10;4.40;;;;;;;9.96;75.97;100445.34;4142774;28;20045;-70
2023/10/23 03:30:51;;;;;;;9.90;3.85;;;;;;;9.93;75.78;100447.88;4143155;28;20125;-70
2023/10/23 03:32:54;;;;;;;14.68;4.55;;;;;;;9.89;76.19;100445.22;4141939;28;20038;-70
2023/10/23 03:35:00;;;;;;;13.95;4.60;;;;;;;9.88;76.46;100456.44;4145340;28;20449;-70
2023/10/23 03:37:04;;;;;;;8.07;4.55;;;;;;;9.87;76.25;100452.09;4136616;28;20039;-70
2023/10/23 03:39:07;;;;;;;14.38;4.88;;;;;;;9.86;76.55;100461.59;4145114;28;20096;-70
2023/10/23 03:41:10;;;;;;;11.82;4.90;;;;;;;9.87;76.37;100458.19;4146477;28;20053;-70
2023/10/23 03:43:13;;;;;;;12.52;5.18;;;;;;;9.87;75.86;100452.97;4144953;28;20034;-70
2023/10/23 03:45:16;;;;;;;13.43;4.78;;;;;;;9.88;75.76;100452.09;4146869;28;20066;-70
2023/10/23 03:47:21;;;;;;;;;;;;;;;9.71;75.91;100457.03;4146021;28;20404;-70
2023/10/23 03:49:24;;;;;;;11.27;5.28;;;;;;;9.65;76.31;100458.63;4146012;28;19921;-69
2023/10/23 03:51:26;;;;;;;8.80;4.30;;;;;;;9.66;76.53;100455.19;4145727;28;20046;-69
2023/10/23 03:53:31;;;;;;;12.00;4.38;;;;;;;9.66;76.44;100456.06;4146313;28;20030;-69
2023/10/23 03:55:37;;;;;;;13.73;4.90;;;;;;;9.66;76.42;100452.59;4147421;28;20050;-70
2023/10/23 03:57:39;;;;;;;14.05;5.65;;;;;;;9.67;76.22;100449.16;4148037;28;20034;-70
2023/10/23 03:59:43;;;;;;;12.48;4.78;;;;;;;9.67;76.68;100447.44;4147429;28;20053;-70
2023/10/23 04:01:46;;;;;;;13.43;5.15;;;;;;;9.69;76.58;100450.91;4145611;28;20034;-70
2023/10/23 04:03:49;;;;;;;9.13;4.75;;;;;;;9.69;76.48;100450.91;4146495;28;20506;-70
2023/10/23 04:05:52;;;;;;;12.30;5.35;;;;;;;9.69;76.36;100443.13;4146859;28;20160;-70
2023/10/23 04:07:55;;;;;;;12.52;4.72;;;;;;;9.68;76.90;100449.19;4127223;28;20096;-71
2023/10/23 04:09:59;;;;;;;14.10;5.00;;;;;;;9.68;76.35;100445.69;4147555;28;20030;-70
2023/10/23 04:12:02;;;;;;;11.48;4.93;;;;;;;9.67;76.73;100437.06;4149767;28;21291;-70
2023/10/23 04:14:05;;;;;;;12.02;5.38;;;;;;;9.67;76.42;100429.25;4144608;28;20034;-71
2023/10/23 04:16:08;;;;;;;6.65;3.65;;;;;;;9.64;76.41;100429.22;4135680;28;20062;-70
2023/10/23 04:18:10;;;;;;;8.52;4.32;;;;;;;9.63;76.16;100443.03;4146259;28;20045;-71
2023/10/23 04:20:13;;;;;;;12.80;5.60;;;;;;;9.61;76.71;100435.22;4144342;28;21475;-70
2023/10/23 04:22:16;;;;;;;10.93;5.18;;;;;;;9.61;76.51;100439.53;4146231;28;20080;-71
2023/10/23 04:24:18;;;;;;;10.77;4.32;;;;;;;9.59;76.31;100433.44;4144046;28;20046;-70
2023/10/23 04:26:22;;;;;;;10.52;4.32;;;;;;;9.58;76.30;100436.91;4146741;28;20063;-70
2023/10/23 04:28:25;;;;;;;12.57;5.05;;;;;;;9.57;76.09;100443.78;4144767;28;20460;-70
2023/10/23 04:30:28;;;;;;;12.38;5.00;;;;;;;9.59;76.18;100436.03;4145367;28;20041;-70
2023/10/23 04:32:30;;;;;;;13.93;5.65;;;;;;;9.59;75.54;100430.84;4146175;28;20151;-70
2023/10/23 04:34:33;;;;;;;11.82;4.72;;;;;;;9.55;75.59;100429.94;4146907;28;20500;-70
2023/10/23 04:36:36;;;;;;;8.75;4.57;;;;;;;9.51;76.46;100432.44;4146721;28;20034;-70
2023/10/23 04:38:38;;;;;;;8.52;4.63;;;;;;;9.46;76.39;100426.28;4145491;28;20038;-70
2023/10/23 04:40:42;;;;;;;12.05;4.85;;;;;;;9.46;76.44;100423.69;4145320;28;20129;-70
2023/10/23 04:42:46;;;;;;;13.88;5.07;;;;;;;9.44;76.59;100421.06;4145618;28;20427;-70
2023/10/23 04:44:49;;;;;;;9.98;5.18;;;;;;;9.43;76.88;100420.19;4147008;28;20084;-71
2023/10/23 04:46:53;;;;;;;9.13;4.85;;;;;;;9.47;76.74;100422.84;4141521;28;20034;-70
2023/10/23 04:48:56;;;;;;;10.18;4.70;;;;;;;9.47;76.34;100415.94;4145386;28;20471;-71
2023/10/23 04:50:59;;;;;;;13.43;4.28;;;;;;;9.47;76.78;100415.94;4143696;28;20133;-70
2023/10/23 04:53:02;;;;;;;11.38;5.88;;;;;;;9.47;75.92;100417.66;4145691;28;20057;-70
2023/10/23 04:55:06;;;;;;;11.02;5.47;;;;;;;9.48;76.13;100422.00;4143527;28;20040;-70
2023/10/23 04:57:09;;;;;;;12.83;4.90;;;;;;;9.44;76.67;100416.75;4146361;28;20133;-70
2023/10/23 04:59:13;;;;;;;12.57;5.00;;;;;;;9.43;76.82;100417.59;4144409;28;20096;-70
2023/10/23 05:01:15;;;;;;;16.13;4.88;;;;;;;9.41;76.92;100419.28;4143036;28;20473;-70
2023/10/23 05:03:18;;;;;;;14.18;5.43;;;;;;;9.38;76.95;100411.44;4145523;28;20504;-70
2023/10/23 05:05:22;;;;;;;13.88;5.20;;;;;;;9.39;77.08;100412.34;4146140;28;20148;-70
2023/10/23 05:07:23;;;;;;;11.60;5.30;;;;;;;9.37;76.67;100412.28;4146023;28;20038;-70
2023/10/23 05:09:26;;;;;;;10.90;4.47;;;;;;;9.37;76.76;100409.69;4143132;28;20605;-70
2023/10/23 05:11:31;;;;;;;17.90;5.53;;;;;;;9.38;76.41;100411.44;4145052;28;20484;-70
2023/10/23 05:13:35;;;;;;;10.20;4.38;;;;;;;9.38;76.49;100406.25;4148715;28;20042;-70
2023/10/23 05:15:39;;;;;;;12.30;4.95;;;;;;;9.37;76.73;100407.09;4145323;28;20037;-70
2023/10/23 05:17:42;;;;;;;16.08;5.15;;;;;;;9.35;76.44;100411.41;4143401;28;20044;-70
2023/10/23 05:19:47;;;;;;;12.25;5.10;;;;;;;9.37;76.67;100409.69;4145939;28;20046;-70
2023/10/23 05:21:50;;;;;;;14.52;5.47;;;;;;;9.40;76.22;100414.06;4145087;28;20293;-70
2023/10/23 05:23:52;;;;;;;13.18;5.80;;;;;;;9.42;76.63;100412.41;4145842;28;20048;-70
2023/10/23 05:25:55;;;;;;;16.35;5.88;;;;;;;9.42;77.08;100408.06;4144992;28;20045;-70
2023/10/23 05:27:58;;;;;;;8.00;4.82;;;;;;;9.40;77.03;100417.56;4144222;28;20073;-71
2023/10/23 05:30:01;;;;;;;14.40;5.85;;;;;;;9.34;77.45;100413.97;4147743;28;20042;-71
2023/10/23 05:32:06;;;;;;;10.52;5.03;;;;;;;9.34;77.69;100416.56;4144802;28;20125;-70
2023/10/23 05:34:09;;;;;;;11.55;4.47;;;;;;;9.34;77.56;100420.00;4143977;28;20045;-70
2023/10/23 05:36:12;;;;;;;11.13;4.40;;;;;;;9.26;77.97;100426.81;4144885;28;20065;-70
2023/10/23 05:38:15;;;;;;;16.38;5.05;;;;;;;9.20;78.06;100431.84;4143886;28;20049;-70
2023/10/23 05:40:18;;;;;;;10.80;5.50;;;;;;;9.14;78.29;100432.63;4143845;28;20045;-70
2023/10/23 05:42:21;;;;;;;10.85;5.60;;;;;;;9.08;77.89;100420.41;4144210;28;20030;-70
2023/10/23 05:44:24;;;;;;;12.27;5.63;;;;;;;8.98;78.23;100434.03;4146601;28;20128;-70
2023/10/23 05:46:29;;;;;;;11.05;5.70;;;;;;;9.05;77.96;100428.13;4144286;28;20038;-71
2023/10/23 05:48:36;;;;;;;16.75;6.18;;;;;;;8.99;77.92;100425.41;4141462;28;20038;-70
2023/10/23 05:50:39;;;;;;;12.77;6.05;;;;;;;8.84;78.16;100430.28;4145817;28;20048;-70
2023/10/23 05:52:42;;;;;;;12.05;5.72;;;;;;;8.78;78.33;100436.22;4145668;28;20399;-70
2023/10/23 05:54:45;;;;;;;13.73;6.22;;;;;;;8.79;78.19;100427.59;4143328;28;20488;-70
2023/10/23 05:56:48;;;;;;;16.38;6.30;;;;;;;8.77;78.26;100431.00;4146327;28;20042;-70
2023/10/23 05:58:51;;;;;;;15.05;5.68;;;;;;;8.75;78.25;100433.56;4144081;28;20046;-70
2023/10/23 06:00:54;;;;;;;10.02;5.70;;;;;;;8.69;78.17;100431.72;4143588;28;20534;-70
2023/10/23 06:02:57;;;;;;;12.07;5.60;;;;;;;8.69;78.43;100429.13;4143024;28;20034;-70
2023/10/23 06:05:01;;;;;;;13.10;5.88;;;;;;;8.77;78.49;100426.69;4142984;28;20044;-70
2023/10/23 06:07:05;;;;;;;10.93;5.80;;;;;;;8.79;78.42;100434.50;4141761;28;20038;-71
2023/10/23 06:09:08;;;;;;;12.93;5.75;;;;;;;8.78;78.12;100432.75;4142762;28;20503;-70
2023/10/23 06:11:12;;;;;;;8.60;4.90;;;;;;;8.80;78.21;100434.50;4142825;28;20046;-70
2023/10/23 06:13:15;;;;;;;16.23;7.68;;;;;;;8.84;77.94;100430.28;4142703;28;20038;-71
2023/10/23 06:15:17;;;;;;;13.75;7.35;;;;;;;8.89;77.81;100432.13;4141561;28;20479;-70
2023/10/23 06:17:20;;;;;;;12.73;7.55;;;;;;;8.87;77.84;100435.53;4145683;28;20049;-70
2023/10/23 06:19:23;;;;;;;13.98;6.53;;;;;;;8.86;77.62;100437.25;4147347;28;20470;-71
2023/10/23 06:21:26;;;;;;;10.30;5.82;;;;;;;8.87;77.78;100432.94;4142747;28;20479;-71
2023/10/23 06:23:30;;;;;;;13.77;7.43;;;;;;;8.88;77.68;100432.09;4145983;28;20037;-70
2023/10/23 06:25:33;;;;;;;11.57;5.88;;;;;;;8.90;77.35;100433.88;4143437;28;20034;-70
2023/10/23 06:27:36;;;;;;;12.30;5.55;;;;;;;8.95;77.33;100446.94;4144627;28;20095;-71
2023/10/23 06:29:39;;;;;;;12.45;5.57;;;;;;;8.98;77.07;100441.81;4144740;28;20124;-70
2023/10/23 06:31:42;;;;;;;16.23;5.75;;;;;;;8.95;76.99;100446.06;4134554;28;20093;-70
2023/10/23 06:33:46;;;;;;;13.20;6.22;;;;;;;8.97;76.93;100442.66;4141930;28;20537;-70
2023/10/23 06:35:57;;;;;;;13.73;5.18;;;;;;;8.98;76.69;100438.34;4141951;28;20033;-71
2023/10/23 06:38:01;;;;;;;14.23;6.68;;;;;;;8.96;76.82;100438.31;4139251;28;20117;-71
2023/10/23 06:40:04;;;;;;;20.98;6.93;;;;;;;8.94;76.52;100440.00;4145531;28;20092;-71
2023/10/23 06:42:07;;;;;;;14.00;5.90;;;;;;;8.94;76.67;100437.41;4144720;28;20093;-70
2023/10/23 06:44:09;;;;;;;13.70;6.90;;;;;;;8.96;76.67;100435.72;4141244;28;20085;-71
2023/10/23 06:46:12;;;;;;;16.08;7.53;;;;;;;8.98;76.80;100434.03;4144227;28;20042;-70
2023/10/23 06:48:15;;;;;;;14.38;7.18;;;;;;;9.02;76.70;100435.84;4144017;28;20044;-70
2023/10/23 06:50:18;;;;;;;19.10;7.32;;;;;;;9.09;76.75;100426.47;4145358;28;20049;-70
2023/10/23 06:52:21;;;;;;;14.50;7.80;;;;;;;9.16;76.77;100425.75;4144740;28;20038;-70
2023/10/23 06:54:27;;;;;;;21.33;8.73;;;;;;;9.25;76.82;100410.34;4143543;28;20048;-67
2023/10/23 06:56:30;;;;;;;19.00;7.55;;;;;;;9.30;77.36;100410.47;4144811;28;20038;-67
2023/10/23 06:58:32;;;;;;;11.73;6.00;;;;;;;9.31;77.14;100409.59;4141386;28;20044;-65
2023/10/23 07:00:36;;;;;;;18.52;6.68;;;;;;;9.37;77.50;100417.47;4139595;28;20046;-66
2023/10/23 07:02:38;;;;;;;14.55;5.95;;;;;;;9.41;77.26;100427.06;4144000;28;20037;-65
2023/10/23 07:04:41;;;;;;;19.45;6.85;;;;;;;9.47;76.96;100425.44;4144171;28;20132;-65
2023/10/23 07:06:44;;;;;;;18.92;6.93;;;;;;;9.50;76.88;100425.50;4143726;28;20041;-64
2023/10/23 07:08:47;;;;;;;18.45;6.95;;;;;;;9.51;76.66;100424.66;4143392;28;20404;-64
2023/10/23 07:10:50;;;;;;;13.90;6.63;;;;;;;9.55;77.36;100429.03;4143787;28;20128;-66
2023/10/23 07:12:55;;;;;;;15.63;7.28;;;;;;;9.56;76.94;100421.31;4123628;28;20058;-65
2023/10/23 07:15:00;;;;;;;19.70;7.65;;;;;;;9.58;76.91;100418.72;4144936;28;20042;-65
2023/10/23 07:17:02;;;;;;;13.82;7.15;;;;;;;9.60;77.16;100419.63;4144528;28;20053;-65
2023/10/23 07:19:05;;;;;;;21.27;8.20;;;;;;;9.67;77.61;100426.66;4143397;28;20384;-65
2023/10/23 07:21:08;;;;;;;23.80;9.05;;;;;;;9.70;76.93;100424.13;4147541;28;20038;-65
2023/10/23 07:23:11;;;;;;;21.65;8.75;;;;;;;9.74;77.34;100425.94;4151195;28;20033;-65
2023/10/23 07:25:15;;;;;;;18.95;7.95;;;;;;;9.77;77.76;100427.72;4142017;28;20038;-67
2023/10/23 07:27:20;;;;;;;;;;;;;;;9.69;77.84;100429.28;4145607;28;20586;-65
2023/10/23 07:29:23;;;;;;;22.00;7.72;;;;;;;9.72;77.80;100427.59;4146417;28;19964;-62
2023/10/23 07:31:26;;;;;;;13.93;7.63;;;;;;;9.78;77.87;100425.13;4144865;28;20045;-66
2023/10/23 07:33:29;;;;;;;16.65;8.43;;;;;;;9.84;77.78;100424.38;4144275;28;20079;-66
2023/10/23 07:35:32;;;;;;;17.63;7.85;;;;;;;9.88;77.60;100420.09;4140270;28;20030;-65
2023/10/23 07:37:54;;;;;;;20.83;8.43;;;;;;;9.88;77.66;100409.69;4138200;28;20042;-65
2023/10/23 07:39:57;;;;;;;17.77;7.00;;;;;;;9.91;77.88;100407.16;4142481;28;20044;-65
2023/10/23 07:42:00;;;;;;;18.80;8.18;;;;;;;9.92;78.21;100411.50;4142433;28;20060;-65
2023/10/23 07:44:05;;;;;;;19.52;8.00;;;;;;;9.99;78.07;100404.66;4142924;28;20042;-64
2023/10/23 07:46:10;;;;;;;17.52;6.65;;;;;;;9.99;77.93;100397.78;4139911;28;20403;-63
2023/10/23 07:48:18;;;;;;;15.48;6.20;;;;;;;10.01;78.49;100396.06;4137964;28;20038;-62
2023/10/23 07:50:24;;;;;;;16.67;6.93;;;;;;;10.04;77.93;100388.31;4142414;28;20096;-63
2023/10/23 07:52:27;;;;;;;12.85;7.07;;;;;;;10.07;78.12;100390.94;4141841;28;20038;-63
2023/10/23 07:54:31;;;;;;;18.17;6.10;;;;;;;10.08;78.56;100384.91;4147538;28;20034;-68
2023/10/23 07:56:34;;;;;;;24.35;8.13;;;;;;;10.10;77.81;100382.34;4143615;28;20076;-67
2023/10/23 07:58:36;;;;;;;16.13;6.82;;;;;;;10.12;77.62;100386.72;4142346;28;20044;-64
2023/10/23 08:00:41;;;;;;;16.30;6.05;;;;;;;10.12;78.69;100389.31;4152120;28;20464;-64
2023/10/23 08:02:44;;;;;;;17.02;5.60;;;;;;;10.14;78.59;100395.38;4147672;28;20037;-64
2023/10/23 08:04:47;;;;;;;15.30;6.55;;;;;;;10.20;78.37;100396.34;4149746;28;20518;-61
2023/10/23 08:06:50;;;;;;;22.60;6.53;;;;;;;10.16;78.41;100379.81;4143445;28;20045;-63
2023/10/23 08:08:53;;;;;;;21.05;8.25;;;;;;;10.26;78.08;100375.63;4142909;28;20042;-64
2023/10/23 08:10:55;;;;;;;17.58;6.68;;;;;;;10.25;78.77;100376.47;4142874;28;20034;-63
2023/10/23 08:12:58;;;;;;;15.95;6.22;;;;;;;10.25;78.22;100381.69;4140459;28;20579;-64
2023/10/23 08:15:02;;;;;;;25.58;7.00;;;;;;;10.20;78.26;100375.56;4139333;28;20042;-64
2023/10/23 08:17:06;;;;;;;23.15;7.25;;;;;;;10.22;78.27;100384.22;4143788;28;20064;-64
2023/10/23 08:19:10;;;;;;;15.40;5.72;;;;;;;10.27;78.57;100391.25;4144394;28;20050;-64
2023/10/23 08:21:15;;;;;;;17.83;6.50;;;;;;;10.35;78.72;100385.31;4141825;28;20130;-64
2023/10/23 08:23:18;;;;;;;15.45;7.25;;;;;;;10.36;78.38;100380.13;4144500;28;20050;-63
2023/10/23 08:25:21;;;;;;;16.98;6.47;;;;;;;10.40;78.67;100379.34;4140696;28;20050;-64
2023/10/23 08:27:24;;;;;;;17.75;7.55;;;;;;;10.47;79.02;100386.38;4143706;28;20053;-64
2023/10/23 08:29:28;;;;;;;17.38;6.72;;;;;;;10.51;78.01;100378.59;4144319;28;20073;-64
2023/10/23 08:31:31;;;;;;;20.58;7.32;;;;;;;10.54;78.59;100378.63;4144155;28;20046;-64
2023/10/23 08:33:38;;;;;;;12.63;5.82;;;;;;;10.62;77.75;100377.03;4143914;28;20038;-64
2023/10/23 08:35:41;;;;;;;18.38;7.15;;;;;;;10.65;78.35;100382.25;4145634;28;20045;-63
2023/10/23 08:37:44;;;;;;;14.60;7.35;;;;;;;10.70;78.39;100382.31;4145509;28;20477;-65
2023/10/23 08:39:59;;;;;;;;;;;;;;;10.63;77.75;100384.84;4142287;28;20041;-64
2023/10/23 08:42:02;;;;;;;15.88;7.45;;;;;;;10.70;78.54;100385.78;4158808;28;20379;-64
2023/10/23 08:44:06;;;;;;;19.80;8.40;;;;;;;10.69;78.29;100391.84;4146960;28;20045;-63
2023/10/23 08:46:09;;;;;;;21.50;9.50;;;;;;;10.85;77.98;100386.81;4144319;28;20133;-65
2023/10/23 08:48:13;;;;;;;20.08;7.93;;;;;;;10.87;77.83;100379.94;4146002;28;20317;-66
2023/10/23 08:50:17;;;;;;;19.97;9.10;;;;;;;11.02;76.47;100380.09;4137760;28;20061;-64
2023/10/23 08:52:20;;;;;;;23.85;10.52;;;;;;;11.04;76.41;100369.69;4143860;28;20034;-64
2023/10/23 08:54:23;;;;;;;23.42;10.77;;;;;;;11.11;75.87;100366.31;4144873;28;20112;-64
2023/10/23 08:56:27;;;;;;;26.50;10.18;;;;;;;11.26;74.69;100371.69;4144917;28;20088;-64
2023/10/23 08:58:33;;;;;;;28.42;13.50;;;;;;;11.09;75.15;100368.88;4143309;28;20033;-64
2023/10/23 09:00:36;;;;;;;36.17;12.70;;;;;;;11.05;75.55;100358.44;4145372;28;20042;-64
2023/10/23 09:02:40;;;;;;;26.73;12.57;;;;;;;11.06;75.06;100363.66;4145172;28;20216;-64
2023/10/23 09:04:54;;;;;;;31.02;14.65;;;;;;;11.06;75.92;100363.66;4144858;28;20045;-64
2023/10/23 09:07:00;;;;;;;28.58;15.50;;;;;;;11.01;76.24;100365.34;4144048;28;20041;-64
2023/10/23 09:09:04;;;;;;;24.98;12.75;;;;;;;11.01;75.78;100367.94;4144164;28;20100;-64
2023/10/23 09:11:08;;;;;;;25.13;13.38;;;;;;;11.06;76.50;100376.66;4143777;28;20092;-65
2023/10/23 09:13:11;;;;;;;27.00;14.68;;;;;;;11.12;76.25;100371.53;4150908;28;20547;-64
2023/10/23 09:15:15;;;;;;;20.38;12.85;;;;;;;11.15;74.53;100378.50;4145081;28;20061;-64
2023/10/23 09:17:18;;;;;;;25.63;14.77;;;;;;;11.05;74.83;100366.25;4142871;28;20038;-64
2023/10/23 09:19:26;;;;;;;22.08;13.13;;;;;;;11.01;75.05;100370.56;4142173;28;20045;-64
2023/10/23 09:21:29;;;;;;;22.45;13.82;;;;;;;11.04;74.94;100365.38;4141158;28;20038;-64
2023/10/23 09:23:33;;;;;;;25.08;14.60;;;;;;;11.14;74.17;100361.13;4144561;28;20041;-64
2023/10/23 09:25:37;;;;;;;;;;;;;;;10.93;75.31;100367.84;4146064;28;20100;-64
2023/10/23 09:27:40;;;;;;;25.38;14.35;;;;;;;10.92;75.29;100357.44;4139496;28;20024;-64
2023/10/23 09:29:44;;;;;;;29.77;15.45;;;;;;;10.94;74.93;100350.53;4144088;28;20038;-64
2023/10/23 09:31:47;;;;;;;25.23;15.68;;;;;;;10.97;75.39;100363.56;4145290;28;20049;-64
2023/10/23 09:33:51;;;;;;;30.40;17.40;;;;;;;11.03;75.21;100345.41;4145490;28;20065;-64